METAR Data
IDs: Format: Raw Decoded Include TAF

Data at: 0230 UTC 12 Dec 2018

KBWI 120154Z 25005KT 10SM CLR M02/M06 A3002 RMK AO2 SLP167 T10171061
KBWI 120054Z 23004KT 10SM CLR 01/M06 A3001 RMK AO2 SLP165 T00061061
KBWI 112354Z 22004KT 10SM CLR 00/M08 A3001 RMK AO2 SLP164 T00001078 10067 21017 55000
KBWI 112254Z 18004KT 10SM CLR 01/M08 A3000 RMK AO2 SLP161 T00061078
KBWI 112154Z 00000KT 10SM CLR 03/M08 A3000 RMK AO2 SLP161 T00281083
KBWI 112054Z 30006KT 10SM CLR 06/M09 A3001 RMK AO2 SLP164 T00561089 56018
KBWI 111954Z 30010KT 10SM CLR 07/M09 A3002 RMK AO2 SLP165 T00671094
KBWI 111854Z 29008KT 10SM CLR 06/M09 A3003 RMK AO2 SLP169 T00611089
KBWI 111754Z 28009KT 10SM CLR 06/M08 A3007 RMK AO2 SLP182 T00611083 10061 21061 58034
KBWI 111654Z 28011KT 10SM CLR 05/M07 A3011 RMK AO2 SLP197 T00501067
KBWI 111554Z 29004KT 10SM FEW250 03/M05 A3014 RMK AO2 SLP209 T00331050
KBWI 111454Z 00000KT 10SM FEW250 02/M04 A3017 RMK AO2 SLP217 T00171044 55001
KBWI 111354Z 00000KT 9SM FEW250 M02/M04 A3017 RMK AO2 SLP216 T10171044
KBWI 111254Z 26003KT 8SM FEW250 M06/M07 A3016 RMK AO2 SLP215 T10561067
KBWI 111154Z 00000KT 6SM BR FEW250 M06/M07 A3017 RMK AO2 SLP218 I1000 I6000 T10561072 11033 21067 56001
KBWI 111054Z 00000KT 8SM FEW250 M06/M07 A3018 RMK AO2 SLP219 T10561072
KBWI 110954Z 28003KT 8SM FEW250 M06/M07 A3016 RMK AO2 SLP216 T10561072
KBWI 110854Z 00000KT 8SM FEW250 M06/M07 A3017 RMK AO2 SLP219 I1000 I3000 T10561067 58002
KBWI 110754Z 00000KT 8SM FEW250 M06/M07 A3019 RMK AO2 SLP225 T10561067
KBWI 110654Z 00000KT 9SM FEW250 M04/M06 A3019 RMK AO2 SLP224 T10441061
KBWI 110554Z 00000KT 10SM FEW250 M03/M06 A3018 RMK AO2 SLP221 T10331061 11006 21039 58002
KBWI 110454Z 30004KT 10SM FEW250 M03/M06 A3019 RMK AO2 SLP225 T10281061 400391039
KBWI 110354Z 31006KT 10SM FEW250 M02/M06 A3019 RMK AO2 SLP223 T10221056
KBWI 110254Z 30003KT 10SM FEW250 M03/M06 A3019 RMK AO2 SLP224 T10281056 51006
KBWI 110154Z 28003KT 10SM SCT250 M02/M05 A3019 RMK AO2 SLP223 T10171050
KBWI 110054Z VRB03KT 10SM BKN250 M03/M06 A3018 RMK AO2 SLP222 T10281056
KBWI 102354Z 31003KT 10SM SCT250 M01/M06 A3017 RMK AO2 SLP217 T10111056 10039 21022 53013
KBWI 102254Z 34003KT 10SM BKN250 01/M05 A3015 RMK AO2 SLP211 T00111050
KBWI 102154Z 36006KT 10SM FEW050 BKN250 01/M05 A3014 RMK AO2 SLP208 T00111050
KBWI 102054Z 35006KT 10SM FEW050 FEW180 BKN250 03/M05 A3013 RMK AO2 SLP204 T00281050 55001
KBWI 101954Z 33009KT 10SM SCT180 BKN250 03/M05 A3012 RMK AO2 SLP201 T00331050
KBWI 101854Z VRB05KT 10SM FEW180 BKN250 03/M06 A3012 RMK AO2 SLP202 T00331056
KBWI 101754Z 01005KT 10SM SCT180 BKN250 02/M06 A3013 RMK AO2 SLP205 T00221061 10028 21028 58016
KBWI 101654Z 01005KT 10SM SCT180 BKN250 02/M06 A3016 RMK AO2 SLP213 T00221061
KBWI 101554Z 02007KT 10SM SCT180 BKN250 01/M07 A3018 RMK AO2 SLP222 T00061067
KBWI 101454Z 35006KT 10SM SCT180 BKN250 01/M07 A3018 RMK AO2 SLP221 T00061067 51016